Aérodrome :
LOGIN :

S'inscrire | Disclaimer

   EN    FR    IT 

 










Légende :    VFR   VFR Marginal   IFR   IFR Intensif   IFR Très Intensif
Visi : 
Plafond : 
>= 8 km
>= 3000ft
5 à 8 km
1000 à 3000 ft
1500m à 5 km
500 à 1000 ft
800 à 1500m
200 à 500 ft
< 800m
< 200 ft
Symboles :   Orages  Brouillard  Fortes neiges  Fortes précipitations  Vent > 20 kt
SIGMETs :   Divers  Orages  Givrage  Turbulence  Onde Orograph.  Cendres Volcan.






- Altitude de l'aérodrome : 1504 ft
- Code IATA : PNA


LEPP - Noain Pamplona

DERNIER METAR :
  • 272030Z 34013KT 310V010 9999 FEW030 07/03 Q1025

METARs EXPIRÉS :
  • 272000Z 32008KT 9999 FEW030 06/03 Q1025
  • 271930Z 33011KT 9999 FEW030 07/03 Q1025
  • 271900Z 30006KT 250V350 9999 FEW030 07/03 Q1025
  • 271830Z 32011KT 9999 FEW030 08/03 Q1025
  • 271800Z 32010KT 280V340 9999 FEW025 08/04 Q1025

TAF TAF LEPP
Valide du 27 à 21h jusqu'au 28 à 21h UTC


272000Z 2721/2821 34010KT 9999 FEW020 SCT030 TX11/2813Z TN03/2803Z
BECMG 2722/2802 VRB06KT
TEMPO 2812/2815 14010KT
PROB30
TEMPO 2813/2820 SHRA SCT030TCU



MET'MAP, la Météo Aéronautique d'un coup d'oeil ! - Copyright ORBIFLY Décembre 2007 - Disclaimer

ORBIFLY MET'MAP TEAM :

Programmation & Développement : Alexandra Zaïnal
Sur une idée originale de : Baudouin d'Aumeries
Assistance à la programmation : Marc-Olivier Méhu
Soutien technique & logistique : Manuel Goepfert

Contact : metmap@orbifly.com




SOURCES & CREDITS :

   NOAA